Time;durP1;ratioP1;P1;durP2;ratioP2;P2;SDS_P1;SDS_P2;PMS_P1;PMS_P2;Temp;Humidity;BMP_temperature;BMP_pressure;BME280_temperature;BME280_humidity;BME280_pressure;Samples;Min_cycle;Max_cycle;Signal;HPM_P1;HPM_P2
2023/05/02 00:02:04;;;;;;;;;;;;;;;14.19;57.37;100895.75;4972057;28;7270;-78
2023/05/02 00:04:30;;;;;;;;;;;;;;;14.14;57.83;100892.97;4970882;28;7210;-78
2023/05/02 00:06:55;;;;;;;;;;;;;;;14.09;57.60;100897.06;4966382;28;6852;-78
2023/05/02 00:09:21;;;;;;;;;;;;;;;14.07;57.82;100896.13;4973311;28;7509;-78
2023/05/02 00:11:47;;;;;;;;;;;;;;;14.03;58.43;100890.84;4970527;28;6780;-78
2023/05/02 00:14:12;;;;;;;;;;;;;;;14.00;57.54;100900.13;4971814;28;6792;-78
2023/05/02 00:16:38;;;;;;;;;;;;;;;13.98;58.13;100905.22;4969150;28;7485;-78
2023/05/02 00:19:04;;;;;;;;;;;;;;;13.96;58.56;100904.28;4983219;28;6962;-78
2023/05/02 00:21:30;;;;;;;;;;;;;;;13.94;58.54;100902.44;4968418;28;6772;-78
2023/05/02 00:23:55;;;;;;;;;;;;;;;13.93;58.66;100900.69;4973868;28;6878;-78
2023/05/02 00:26:22;;;;;;;;;;;;;;;13.91;58.76;100900.66;4990394;28;7210;-78
2023/05/02 00:28:48;;;;;;;;;;;;;;;13.88;58.26;100900.50;4950712;28;7096;-78
2023/05/02 00:31:14;;;;;;;;;;;;;;;13.84;57.86;100899.47;4969689;28;7270;-78
2023/05/02 00:33:40;;;;;;;;;;;;;;;13.82;58.23;100905.41;4987906;28;7409;-78
2023/05/02 00:36:17;;;;;;;;;;;;;;;13.80;57.93;100912.16;4956524;28;6839;-78
2023/05/02 00:38:43;;;;;;;;;;;;;;;13.80;58.85;100925.03;4970231;28;6948;-78
2023/05/02 00:41:09;;;;;;;;;;;;;;;13.84;58.82;100916.66;4956966;28;6772;-78
2023/05/02 00:43:36;;;;;;;;;;;;;;;13.87;58.89;100911.63;4965935;28;6832;-78
2023/05/02 00:46:02;;;;;;;;;;;;;;;13.94;59.32;100916.22;4968287;28;6816;-78
2023/05/02 00:48:28;;;;;;;;;;;;;;;14.00;59.56;100921.66;4971162;28;6860;-78
2023/05/02 00:50:54;;;;;;;;;;;;;;;14.05;59.79;100919.25;4958774;28;6828;-78
2023/05/02 00:53:20;;;;;;;;;;;;;;;14.13;59.22;100929.88;4975626;28;6792;-78
2023/05/02 00:55:48;;;;;;;;;;;;;;;14.21;59.66;100938.81;4969896;28;6776;-78
2023/05/02 00:58:18;;;;;;;;;;;;;;;14.28;59.44;100937.38;4972813;28;6986;-78
2023/05/02 01:01:30;;;;;;;;;;;;;;;14.34;58.99;100932.47;4957979;28;6951;-78
2023/05/02 01:03:58;;;;;;;;;;;;;;;14.40;59.79;100937.88;4965876;28;7928;-78
2023/05/02 01:06:42;;;;;;;;;;;;;;;14.46;59.51;100942.41;4955852;28;6787;-78
2023/05/02 01:09:21;;;;;;;;;;;;;;;14.50;58.59;100944.31;4987927;28;6964;-78
2023/05/02 01:12:02;;;;;;;;;;;;;;;14.53;59.28;100943.53;4983960;28;7158;-78
2023/05/02 01:14:33;;;;;;;;;;;;;;;14.56;58.96;100949.69;4960372;28;6840;-78
2023/05/02 01:17:04;;;;;;;;;;;;;;;14.58;59.29;100949.75;4959117;28;7146;-78
2023/05/02 01:19:43;;;;;;;;;;;;;;;14.60;59.30;100944.69;4966087;28;7271;-78
2023/05/02 01:22:11;;;;;;;;;;;;;;;14.62;58.74;100948.19;4967533;28;6816;-78
2023/05/02 01:25:00;;;;;;;;;;;;;;;14.64;58.90;100957.75;4961329;28;6844;-76
2023/05/02 01:27:57;;;;;;;;;;;;;;;14.67;58.67;100957.88;4975177;28;7040;-78
2023/05/02 01:30:29;;;;;;;;;;;;;;;14.69;59.30;100957.94;4956985;28;6879;-78
2023/05/02 01:32:59;;;;;;;;;;;;;;;14.73;58.96;100957.28;4973141;28;6872;-78
2023/05/02 01:35:26;;;;;;;;;;;;;;;14.76;58.95;100957.38;4966227;28;7243;-78
2023/05/02 01:37:56;;;;;;;;;;;;;;;14.76;58.71;100962.53;4970745;28;7005;-78
2023/05/02 01:40:25;;;;;;;;;;;;;;;14.76;58.68;100959.09;4985981;28;6808;-78
2023/05/02 01:42:53;;;;;;;;;;;;;;;14.77;58.65;100951.41;4966261;28;7013;-79
2023/05/02 01:45:22;;;;;;;;;;;;;;;14.78;58.75;100953.19;4958377;28;6804;-78
2023/05/02 01:47:50;;;;;;;;;;;;;;;14.81;58.87;100957.56;4981574;28;7266;-78
2023/05/02 01:50:23;;;;;;;;;;;;;;;14.81;59.44;100955.88;4963862;28;6967;-79
2023/05/02 01:52:52;;;;;;;;;;;;;;;14.84;59.02;100945.66;4957881;28;9426;-78
2023/05/02 01:55:19;;;;;;;;;;;;;;;14.87;59.32;100955.22;4969951;28;6804;-78
2023/05/02 01:57:47;;;;;;;;;;;;;;;14.90;58.69;100954.47;4950547;28;7298;-78
2023/05/02 02:00:17;;;;;;;;;;;;;;;14.95;58.85;100960.69;4984520;28;7675;-78
2023/05/02 02:02:45;;;;;;;;;;;;;;;14.97;58.55;100965.09;4952725;28;6907;-78
2023/05/02 02:05:13;;;;;;;;;;;;;;;14.99;58.74;100965.16;4989100;28;9643;-78
2023/05/02 02:07:39;;;;;;;;;;;;;;;15.03;58.73;100963.59;4952234;28;7295;-79
2023/05/02 02:10:05;;;;;;;;;;;;;;;15.05;58.93;100961.94;4961118;28;7340;-78
2023/05/02 02:12:39;;;;;;;;;;;;;;;15.06;59.05;100963.69;4958330;28;6870;-78
2023/05/02 02:15:15;;;;;;;;;;;;;;;15.06;58.63;100961.97;4951800;28;6800;-79
2023/05/02 02:18:12;;;;;;;;;;;;;;;15.08;58.60;100974.94;4971223;28;6884;-78
2023/05/02 02:20:43;;;;;;;;;;;;;;;15.08;58.40;100970.69;4983434;28;7113;-79
2023/05/02 02:23:12;;;;;;;;;;;;;;;15.09;58.47;100971.53;4980891;28;7211;-78
2023/05/02 02:25:39;;;;;;;;;;;;;;;15.09;58.90;100971.53;4967153;28;6816;-78
2023/05/02 02:28:06;;;;;;;;;;;;;;;15.10;59.00;100970.72;4963608;28;7193;-78
2023/05/02 02:30:32;;;;;;;;;;;;;;;15.13;58.71;100979.47;4958056;28;6800;-78
2023/05/02 02:32:58;;;;;;;;;;;;;;;15.14;58.72;100975.19;4967002;28;6799;-81
2023/05/02 02:35:33;;;;;;;;;;;;;;;15.16;58.65;100976.13;4970606;28;7256;-82
2023/05/02 02:38:34;;;;;;;;;;;;;;;15.17;58.76;100975.31;4949584;28;7010;-82
2023/05/02 02:41:24;;;;;;;;;;;;;;;15.18;58.49;100981.38;4980782;28;6892;-80
2023/05/02 02:44:27;;;;;;;;;;;;;;;15.18;58.68;100992.56;4984654;28;6866;-82
2023/05/02 02:47:08;;;;;;;;;;;;;;;15.17;58.61;100980.47;4956848;28;6966;-82
2023/05/02 02:50:05;;;;;;;;;;;;;;;15.21;58.48;100982.38;4969709;28;8632;-77
2023/05/02 02:52:45;;;;;;;;;;;;;;;15.22;58.42;100983.22;4983301;28;7086;-76
2023/05/02 02:55:50;;;;;;;;;;;;;;;15.24;58.47;100979.00;4955973;28;6796;-75
2023/05/02 02:58:50;;;;;;;;;;;;;;;15.25;59.11;100978.16;4957362;28;7963;-79
2023/05/02 03:01:21;;;;;;;;;;;;;;;15.24;58.72;100981.59;4951468;28;6857;-78
2023/05/02 03:03:48;;;;;;;;;;;;;;;15.27;58.71;100982.59;4956445;28;7372;-76
2023/05/02 03:06:19;;;;;;;;;;;;;;;15.31;58.92;100983.59;4951692;28;6936;-75
2023/05/02 03:08:45;;;;;;;;;;;;;;;15.32;58.26;100985.34;4970747;28;6800;-75
2023/05/02 03:11:11;;;;;;;;;;;;;;;15.35;58.91;100993.19;4955263;28;6812;-75
2023/05/02 03:13:36;;;;;;;;;;;;;;;15.37;58.69;100998.44;4969454;28;6954;-79
2023/05/02 03:16:35;;;;;;;;;;;;;;;15.38;58.95;101005.34;4948431;28;7105;-75
2023/05/02 03:19:01;;;;;;;;;;;;;;;15.38;58.86;101010.50;4962500;28;7014;-76
2023/05/02 03:21:27;;;;;;;;;;;;;;;15.38;58.89;101006.25;4951723;28;6970;-76
2023/05/02 03:23:52;;;;;;;;;;;;;;;15.40;59.16;101006.28;4952562;28;7204;-75
2023/05/02 03:26:18;;;;;;;;;;;;;;;15.42;58.99;101007.25;4962798;28;6945;-77
2023/05/02 03:28:45;;;;;;;;;;;;;;;15.44;58.49;101015.03;4946414;28;6785;-75
2023/05/02 03:31:13;;;;;;;;;;;;;;;15.47;58.77;101013.44;4957874;28;6833;-79
2023/05/02 03:33:38;;;;;;;;;;;;;;;15.49;58.91;101019.53;4951828;28;7247;-78
2023/05/02 03:36:06;;;;;;;;;;;;;;;15.51;59.02;101017.94;4959000;28;6792;-76
2023/05/02 03:38:31;;;;;;;;;;;;;;;15.53;58.84;101023.13;4964600;28;6788;-77
2023/05/02 03:40:57;;;;;;;;;;;;;;;15.52;58.84;101018.78;4966346;28;6780;-77
2023/05/02 03:43:23;;;;;;;;;;;;;;;15.50;58.76;101017.84;4983076;28;6986;-77
2023/05/02 03:45:48;;;;;;;;;;;;;;;15.47;58.63;101020.34;4982462;28;7020;-75
2023/05/02 03:48:14;;;;;;;;;;;;;;;15.46;58.82;101031.50;4970855;28;6855;-76
2023/05/02 03:50:40;;;;;;;;;;;;;;;15.46;58.09;101034.06;4966626;28;6780;-77
2023/05/02 03:53:07;;;;;;;;;;;;;;;15.42;58.60;101033.06;4964575;28;6903;-77
2023/05/02 03:55:32;;;;;;;;;;;;;;;15.41;58.43;101034.75;4971164;28;6800;-76
2023/05/02 03:57:58;;;;;;;;;;;;;;;15.40;58.17;101035.59;4971329;28;7038;-76
2023/05/02 04:00:24;;;;;;;;;;;;;;;15.41;58.75;101044.22;4967553;28;7016;-76
2023/05/02 04:02:50;;;;;;;;;;;;;;;15.39;58.39;101044.16;4965718;28;7212;-75
2023/05/02 04:05:15;;;;;;;;;;;;;;;15.40;58.60;101050.19;4963506;28;6958;-75
2023/05/02 04:07:42;;;;;;;;;;;;;;;15.40;58.45;101057.94;4975640;28;7105;-79
2023/05/02 04:10:15;;;;;;;;;;;;;;;15.38;58.16;101065.66;4954693;28;6796;-78
2023/05/02 04:12:42;;;;;;;;;;;;;;;15.33;57.85;101066.28;4960809;28;6816;-75
2023/05/02 04:15:09;;;;;;;;;;;;;;;15.28;57.81;101066.97;4956755;28;6987;-76
2023/05/02 04:17:35;;;;;;;;;;;;;;;15.26;58.36;101067.75;4986364;28;6982;-79
2023/05/02 04:20:00;;;;;;;;;;;;;;;15.22;57.80;101071.91;4960905;28;6776;-77
2023/05/02 04:22:26;;;;;;;;;;;;;;;15.20;57.83;101080.41;4959211;28;6948;-78
2023/05/02 04:24:53;;;;;;;;;;;;;;;15.18;57.34;101089.81;4944065;28;6957;-75
2023/05/02 04:27:19;;;;;;;;;;;;;;;15.14;57.93;101087.09;4975148;28;7562;-74
2023/05/02 04:29:49;;;;;;;;;;;;;;;15.14;57.40;101093.97;4962611;28;6988;-75
2023/05/02 04:32:15;;;;;;;;;;;;;;;15.11;57.88;101096.41;4958762;28;7098;-75
2023/05/02 04:34:40;;;;;;;;;;;;;;;15.07;57.96;101098.00;4966885;28;6996;-78
2023/05/02 04:37:06;;;;;;;;;;;;;;;15.06;57.62;101098.78;4958816;28;6924;-75
2023/05/02 04:39:32;;;;;;;;;;;;;;;15.05;57.77;101102.19;4953232;28;6800;-76
2023/05/02 04:41:58;;;;;;;;;;;;;;;15.04;57.30;101103.03;4984163;28;8542;-74
2023/05/02 04:44:24;;;;;;;;;;;;;;;15.06;57.73;101103.09;4986039;28;6992;-78
2023/05/02 04:46:50;;;;;;;;;;;;;;;15.05;57.62;101102.19;4942450;28;7471;-78
2023/05/02 04:49:16;;;;;;;;;;;;;;;15.07;57.49;101102.28;4971429;28;7403;-77
2023/05/02 04:51:42;;;;;;;;;;;;;;;15.07;57.68;101102.28;4960511;28;6829;-78
2023/05/02 04:54:07;;;;;;;;;;;;;;;15.07;57.06;101100.59;4952255;28;6986;-75
2023/05/02 04:56:33;;;;;;;;;;;;;;;15.09;56.89;101111.84;4953876;28;7272;-76
2023/05/02 04:58:59;;;;;;;;;;;;;;;15.10;57.41;101118.78;4972436;28;6772;-79
2023/05/02 05:01:26;;;;;;;;;;;;;;;15.11;56.66;101122.22;4953708;28;6957;-74
2023/05/02 05:03:55;;;;;;;;;;;;;;;15.14;57.46;101120.66;4984899;28;6849;-74
2023/05/02 05:06:21;;;;;;;;;;;;;;;15.14;57.21;101125.81;4987706;28;7134;-74
2023/05/02 05:08:47;;;;;;;;;;;;;;;15.14;56.76;101136.13;4946374;28;7137;-78
2023/05/02 05:11:14;;;;;;;;;;;;;;;15.11;57.87;101129.97;4933089;28;7338;-75
2023/05/02 05:13:41;;;;;;;;;;;;;;;15.11;57.09;101133.44;4962751;28;7159;-78
2023/05/02 05:16:07;;;;;;;;;;;;;;;15.09;57.14;101140.25;4968926;28;6864;-76
2023/05/02 05:18:39;;;;;;;;;;;;;;;15.09;57.33;101142.84;4966038;28;6884;-77
2023/05/02 05:21:09;;;;;;;;;;;;;;;15.09;57.64;101148.00;4966763;28;7906;-74
2023/05/02 05:23:37;;;;;;;;;;;;;;;15.10;57.63;101156.59;4965301;28;6977;-78
2023/05/02 05:26:15;;;;;;;;;;;;;;;15.08;57.10;101156.56;4985125;28;6860;-76
2023/05/02 05:28:42;;;;;;;;;;;;;;;15.08;57.73;101158.25;4986093;28;7233;-75
2023/05/02 05:31:14;;;;;;;;;;;;;;;15.07;57.45;101162.53;4955011;28;7796;-75
2023/05/02 05:33:39;;;;;;;;;;;;;;;15.08;57.17;101163.41;4967172;28;6871;-78
2023/05/02 05:36:07;;;;;;;;;;;;;;;15.07;57.37;101165.13;4957273;28;7318;-77
2023/05/02 05:38:33;;;;;;;;;;;;;;;15.08;57.27;101166.88;4955739;28;6788;-75
2023/05/02 05:40:58;;;;;;;;;;;;;;;15.08;57.68;101172.06;4957519;28;6800;-75
2023/05/02 05:43:25;;;;;;;;;;;;;;;15.10;57.48;101175.56;4957649;28;8936;-75
2023/05/02 05:45:52;;;;;;;;;;;;;;;15.14;57.65;101174.00;4967088;28;6951;-76
2023/05/02 05:48:17;;;;;;;;;;;;;;;15.18;57.54;101177.59;4955075;28;7265;-75
2023/05/02 05:50:43;;;;;;;;;;;;;;;15.24;57.58;101180.41;4966288;28;6927;-74
2023/05/02 05:53:09;;;;;;;;;;;;;;;15.30;57.33;101185.84;4949301;28;6776;-75
2023/05/02 05:55:35;;;;;;;;;;;;;;;15.34;57.74;101186.84;4969444;28;6951;-75
2023/05/02 05:58:01;;;;;;;;;;;;;;;15.38;57.43;101188.72;4970740;28;7707;-76
2023/05/02 06:00:26;;;;;;;;;;;;;;;15.41;57.28;101196.63;4950009;28;7248;-76
2023/05/02 06:02:52;;;;;;;;;;;;;;;15.36;57.24;101196.44;4981519;28;6840;-78
2023/05/02 06:05:18;;;;;;;;;;;;;;;15.31;56.94;101202.22;4959499;28;6952;-74
2023/05/02 06:07:43;;;;;;;;;;;;;;;15.23;57.26;101201.88;4957734;28;6956;-76
2023/05/02 06:10:09;;;;;;;;;;;;;;;15.14;57.26;101204.97;4950334;28;7155;-78
2023/05/02 06:12:35;;;;;;;;;;;;;;;15.06;57.29;101204.63;4969885;28;6966;-75
2023/05/02 06:15:01;;;;;;;;;;;;;;;14.98;57.91;101206.03;4954132;28;10765;-78
2023/05/02 06:17:26;;;;;;;;;;;;;;;14.93;58.06;101205.84;4970149;28;6768;-75
2023/05/02 06:19:52;;;;;;;;;;;;;;;14.93;58.18;101213.59;4984507;28;6953;-78
2023/05/02 06:22:18;;;;;;;;;;;;;;;14.91;58.32;101220.34;4986087;28;7063;-75
2023/05/02 06:24:43;;;;;;;;;;;;;;;14.89;58.24;101215.97;4955040;28;10758;-78
2023/05/02 06:27:09;;;;;;;;;;;;;;;14.89;58.87;101221.13;4963140;28;7354;-76
2023/05/02 06:29:35;;;;;;;;;;;;;;;14.88;58.83;101222.81;4980127;28;7003;-76
2023/05/02 06:32:01;;;;;;;;;;;;;;;14.89;59.04;101231.44;4952997;28;7188;-74
2023/05/02 06:34:26;;;;;;;;;;;;;;;14.88;58.72;101234.84;4981635;28;6979;-73
2023/05/02 06:36:55;;;;;;;;;;;;;;;14.86;58.66;101238.22;4961764;28;7244;-74
2023/05/02 06:39:21;;;;;;;;;;;;;;;14.87;59.13;101241.69;4948273;28;6800;-74
2023/05/02 06:41:49;;;;;;;;;;;;;;;14.86;59.05;101242.53;4967684;28;7246;-75
2023/05/02 06:44:15;;;;;;;;;;;;;;;14.86;59.33;101251.13;4985401;28;7242;-74
2023/05/02 06:46:41;;;;;;;;;;;;;;;14.88;59.18;101248.63;4949433;28;6847;-77
2023/05/02 06:49:07;;;;;;;;;;;;;;;14.89;58.92;101258.13;4964124;28;6880;-73
2023/05/02 06:51:32;;;;;;;;;;;;;;;14.88;59.33;101265.81;4964068;28;6772;-77
2023/05/02 06:53:58;;;;;;;;;;;;;;;14.88;58.91;101277.00;4956686;28;7073;-74
2023/05/02 06:56:24;;;;;;;;;;;;;;;14.89;59.13;101272.75;4955207;28;6868;-74
2023/05/02 06:58:51;;;;;;;;;;;;;;;14.93;58.98;101279.78;4947212;28;6979;-77
2023/05/02 07:01:16;;;;;;;;;;;;;;;14.95;58.65;101279.06;4949953;28;7216;-74
2023/05/02 07:03:42;;;;;;;;;;;;;;;14.96;59.25;101279.91;4968318;28;7119;-76
2023/05/02 07:06:08;;;;;;;;;;;;;;;14.98;58.87;101288.63;4981876;28;6954;-75
2023/05/02 07:08:34;;;;;;;;;;;;;;;14.99;58.53;101290.41;4978233;28;6972;-74
2023/05/02 07:11:01;;;;;;;;;;;;;;;14.99;58.98;101285.25;4953964;28;10115;-74
2023/05/02 07:13:26;;;;;;;;;;;;;;;15.02;58.98;101284.47;4967495;28;6824;-77
2023/05/02 07:15:52;;;;;;;;;;;;;;;15.09;58.85;101281.34;4957019;28;6876;-73
2023/05/02 07:18:18;;;;;;;;;;;;;;;15.21;59.32;101291.34;4965482;28;6776;-75
2023/05/02 07:20:44;;;;;;;;;;;;;;;15.35;58.83;101290.22;4957689;28;8595;-77
2023/05/02 07:23:09;;;;;;;;;;;;;;;15.53;59.48;101294.38;4983335;28;6796;-73
2023/05/02 07:25:36;;;;;;;;;;;;;;;15.69;58.67;101295.91;4962260;28;7201;-76
2023/05/02 07:28:01;;;;;;;;;;;;;;;15.80;57.95;101293.78;4969389;28;6824;-76
2023/05/02 07:30:27;;;;;;;;;;;;;;;15.91;57.33;101313.22;4966148;28;6835;-75
2023/05/02 07:32:53;;;;;;;;;;;;;;;16.02;56.90;101308.50;4968143;28;6947;-74
2023/05/02 07:35:18;;;;;;;;;;;;;;;16.08;56.54;101316.50;4949794;28;7274;-75
2023/05/02 07:37:44;;;;;;;;;;;;;;;16.22;56.88;101318.75;4945904;28;7365;-74
2023/05/02 07:40:10;;;;;;;;;;;;;;;16.37;56.48;101323.63;4951163;28;7157;-76
2023/05/02 07:42:35;;;;;;;;;;;;;;;16.50;56.28;101331.03;4965881;28;7013;-73
2023/05/02 07:45:02;;;;;;;;;;;;;;;16.62;55.85;101329.78;4955042;28;7098;-74
2023/05/02 07:47:28;;;;;;;;;;;;;;;16.74;55.52;101330.22;4949756;28;6993;-75
2023/05/02 07:49:55;;;;;;;;;;;;;;;16.86;55.08;101339.25;4967754;28;7038;-73
2023/05/02 07:52:21;;;;;;;;;;;;;;;16.93;54.59;101326.59;4947826;28;6983;-74
2023/05/02 07:54:48;;;;;;;;;;;;;;;17.01;54.52;101334.69;4966418;28;6868;-74
2023/05/02 07:57:14;;;;;;;;;;;;;;;17.18;54.47;101331.81;4953257;28;7074;-73
2023/05/02 07:59:40;;;;;;;;;;;;;;;17.33;53.78;101337.53;4981678;28;6952;-74
2023/05/02 08:02:06;;;;;;;;;;;;;;;17.41;52.58;101335.22;4965831;28;7217;-73
2023/05/02 08:04:32;;;;;;;;;;;;;;;17.43;52.97;101338.75;4964824;28;7499;-73
2023/05/02 08:06:57;;;;;;;;;;;;;;;17.43;52.05;101332.69;4964652;28;7181;-74
2023/05/02 08:09:23;;;;;;;;;;;;;;;17.48;51.53;101341.50;4952638;28;6772;-73
2023/05/02 08:11:49;;;;;;;;;;;;;;;17.55;51.70;101343.47;4981367;28;6958;-75
2023/05/02 08:14:15;;;;;;;;;;;;;;;17.64;51.36;101342.91;4968845;28;6768;-73
2023/05/02 08:16:41;;;;;;;;;;;;;;;17.75;50.82;101345.84;4967576;28;6878;-72
2023/05/02 08:19:07;;;;;;;;;;;;;;;17.76;50.63;101343.31;4964038;28;7185;-74
2023/05/02 08:21:34;;;;;;;;;;;;;;;17.76;50.19;101352.78;4955771;28;7240;-73
2023/05/02 08:24:00;;;;;;;;;;;;;;;17.74;50.28;101360.53;4971456;28;6873;-73
2023/05/02 08:26:26;;;;;;;;;;;;;;;17.74;49.91;101357.94;4972821;28;7329;-72
2023/05/02 08:28:53;;;;;;;;;;;;;;;17.72;49.93;101351.84;4970339;28;6804;-74
2023/05/02 08:31:19;;;;;;;;;;;;;;;17.78;50.17;101351.16;4955267;28;6806;-75
2023/05/02 08:33:45;;;;;;;;;;;;;;;17.83;49.35;101347.00;4971230;28;7199;-73
2023/05/02 08:36:16;;;;;;;;;;;;;;;17.86;49.13;101361.78;4968544;28;8068;-72
2023/05/02 08:38:44;;;;;;;;;;;;;;;17.88;49.03;101361.00;4967252;28;6808;-73
2023/05/02 08:41:11;;;;;;;;;;;;;;;17.99;49.20;101361.34;4973346;28;7295;-72
2023/05/02 08:43:40;;;;;;;;;;;;;;;18.15;49.88;101357.56;4950274;28;6863;-74
2023/05/02 08:46:10;;;;;;;;;;;;;;;18.37;49.12;101358.25;4962561;28;6808;-74
2023/05/02 08:48:37;;;;;;;;;;;;;;;18.58;48.85;101364.94;4957100;28;8553;-73
2023/05/02 08:51:06;;;;;;;;;;;;;;;18.72;48.36;101366.22;4967160;28;6859;-72
2023/05/02 08:53:35;;;;;;;;;;;;;;;18.79;47.62;101371.59;4949312;28;6978;-73
2023/05/02 08:56:02;;;;;;;;;;;;;;;18.87;47.73;101378.78;4956448;28;6788;-73
2023/05/02 08:58:29;;;;;;;;;;;;;;;18.87;46.91;101380.50;4956973;28;6808;-72
2023/05/02 09:00:59;;;;;;;;;;;;;;;18.83;46.65;101386.44;4947212;28;6868;-73
2023/05/02 09:03:31;;;;;;;;;;;;;;;18.90;46.75;101385.78;4962082;28;7141;-75
2023/05/02 09:06:12;;;;;;;;;;;;;;;19.03;46.31;101386.19;4952618;28;6856;-76
2023/05/02 09:08:41;;;;;;;;;;;;;;;19.05;46.14;101394.91;4964468;28;6780;-72
2023/05/02 09:11:12;;;;;;;;;;;;;;;19.06;45.74;101391.47;4950000;28;6796;-74
2023/05/02 09:13:40;;;;;;;;;;;;;;;19.12;46.04;101395.13;4980534;28;6827;-71
2023/05/02 09:16:24;;;;;;;;;;;;;;;19.28;45.92;101404.22;4983958;28;7333;-72
2023/05/02 09:18:55;;;;;;;;;;;;;;;19.47;45.52;101403.88;4956097;28;7028;-72
2023/05/02 09:21:24;;;;;;;;;;;;;;;19.57;44.77;101400.69;4978499;28;8840;-73
2023/05/02 09:23:56;;;;;;;;;;;;;;;19.61;44.32;101402.50;4967571;28;7183;-71
2023/05/02 09:26:26;;;;;;;;;;;;;;;19.57;44.15;101408.47;4966374;28;6800;-72
2023/05/02 09:28:55;;;;;;;;;;;;;;;19.51;43.43;101416.09;4952623;28;6950;-74
2023/05/02 09:31:29;;;;;;;;;;;;;;;19.42;43.93;101414.13;4951790;28;6928;-72
2023/05/02 09:33:55;;;;;;;;;;;;;;;19.38;44.12;101423.56;4969191;28;7142;-71
2023/05/02 09:36:23;;;;;;;;;;;;;;;19.38;43.65;101420.06;4984763;28;7768;-72
2023/05/02 09:38:49;;;;;;;;;;;;;;;19.29;43.19;101426.78;4968257;28;6796;-72
2023/05/02 09:41:18;;;;;;;;;;;;;;;19.09;43.21;101420.13;4970010;28;7220;-78
2023/05/02 09:43:56;;;;;;;;;;;;;;;18.90;43.36;101434.25;4971361;28;6959;-79
2023/05/02 09:46:21;;;;;;;;;;;;;;;18.67;43.42;101430.13;4959105;28;6978;-77
2023/05/02 09:48:55;;;;;;;;;;;;;;;18.47;44.34;101445.06;4955797;28;6768;-78
2023/05/02 09:51:23;;;;;;;;;;;;;;;18.28;43.97;101444.47;4984802;28;6917;-78
2023/05/02 09:53:51;;;;;;;;;;;;;;;18.10;44.12;101452.53;4952759;28;7617;-78
2023/05/02 09:56:17;;;;;;;;;;;;;;;18.03;44.71;101466.06;4961205;28;7130;-78
2023/05/02 09:58:44;;;;;;;;;;;;;;;17.92;44.79;101460.53;4970067;28;7150;-78
2023/05/02 10:01:20;;;;;;;;;;;;;;;17.84;44.96;101465.44;4982838;28;7167;-78
2023/05/02 10:03:47;;;;;;;;;;;;;;;17.79;45.07;101467.00;4971255;28;8797;-78
2023/05/02 10:06:16;;;;;;;;;;;;;;;17.80;45.70;101458.38;4957846;28;7812;-78
2023/05/02 10:08:44;;;;;;;;;;;;;;;17.89;45.31;101479.47;4968163;28;6843;-78
2023/05/02 10:11:12;;;;;;;;;;;;;;;17.95;45.16;101467.50;4955929;28;6846;-78
2023/05/02 10:13:42;;;;;;;;;;;;;;;18.07;45.45;101472.28;4968964;28;9641;-78
2023/05/02 10:16:12;;;;;;;;;;;;;;;18.24;45.83;101473.75;4987216;28;6907;-78
2023/05/02 10:18:47;;;;;;;;;;;;;;;18.42;45.21;101477.78;4964649;28;6792;-78
2023/05/02 10:21:18;;;;;;;;;;;;;;;18.60;45.16;101470.59;4958539;28;6884;-78
2023/05/02 10:23:45;;;;;;;;;;;;;;;18.75;44.46;101477.09;4953500;28;7097;-77
2023/05/02 10:26:16;;;;;;;;;;;;;;;18.85;44.62;101480.88;4975855;28;6808;-78
2023/05/02 10:28:42;;;;;;;;;;;;;;;18.90;43.72;101479.28;4970819;28;6792;-80
2023/05/02 10:31:13;;;;;;;;;;;;;;;18.84;43.99;101479.97;4962027;28;6879;-79
2023/05/02 10:33:40;;;;;;;;;;;;;;;18.73;43.90;101481.38;4987492;28;6804;-79
2023/05/02 10:36:13;;;;;;;;;;;;;;;18.57;43.72;101474.81;4971180;28;6992;-78
2023/05/02 10:38:41;;;;;;;;;;;;;;;18.49;43.61;101482.31;4966607;28;6812;-79
2023/05/02 10:41:21;;;;;;;;;;;;;;;18.49;43.84;101479.72;4941587;28;7166;-75
2023/05/02 10:43:49;;;;;;;;;;;;;;;18.50;43.76;101483.22;4987919;28;6978;-75
2023/05/02 10:46:41;;;;;;;;;;;;;;;18.51;43.93;101472.00;4971535;28;6796;-80
2023/05/02 10:49:11;;;;;;;;;;;;;;;18.46;43.70;101472.75;4953282;28;6966;-79
2023/05/02 10:51:40;;;;;;;;;;;;;;;18.45;43.37;101473.59;4956125;28;7196;-80
2023/05/02 10:54:32;;;;;;;;;;;;;;;18.44;43.66;101468.34;4981710;28;7463;-80
2023/05/02 10:57:05;;;;;;;;;;;;;;;18.39;43.39;101470.78;4972752;28;6986;-79
2023/05/02 10:59:40;;;;;;;;;;;;;;;18.26;42.96;101473.81;4956557;28;7155;-79
2023/05/02 11:02:29;;;;;;;;;;;;;;;18.06;43.06;101476.63;4966274;28;7375;-79
2023/05/02 11:05:06;;;;;;;;;;;;;;;17.93;43.13;101474.38;4969468;28;7319;-79
2023/05/02 11:07:35;;;;;;;;;;;;;;;17.88;43.13;101482.88;4957396;28;7867;-79
2023/05/02 11:10:33;;;;;;;;;;;;;;;17.85;43.11;101472.38;4972758;28;6864;-79
2023/05/02 11:13:00;;;;;;;;;;;;;;;17.93;43.61;101470.09;4964737;28;6820;-79
2023/05/02 11:15:28;;;;;;;;;;;;;;;18.11;43.86;101469.00;4957300;28;9068;-81
2023/05/02 11:18:12;;;;;;;;;;;;;;;18.26;43.22;101472.06;4984927;28;6835;-76
2023/05/02 11:20:43;;;;;;;;;;;;;;;18.30;42.85;101479.16;4969823;28;7011;-80
2023/05/02 11:23:21;;;;;;;;;;;;;;;18.21;42.47;101475.34;4956657;28;6859;-79
2023/05/02 11:25:59;;;;;;;;;;;;;;;18.16;42.24;101473.50;4984594;28;7269;-78
2023/05/02 11:28:37;;;;;;;;;;;;;;;18.27;43.14;101470.38;4966156;28;6899;-79
2023/05/02 11:31:06;;;;;;;;;;;;;;;18.43;42.41;101461.38;4968643;28;7153;-80
2023/05/02 11:33:32;;;;;;;;;;;;;;;18.56;42.46;101475.66;4967638;28;6975;-80
2023/05/02 11:35:58;;;;;;;;;;;;;;;18.66;42.01;101469.91;4960945;28;6861;-79
2023/05/02 11:38:33;;;;;;;;;;;;;;;18.78;42.31;101473.72;4956045;28;6772;-79
2023/05/02 11:41:01;;;;;;;;;;;;;;;19.03;41.79;101475.38;4962126;28;6804;-80
2023/05/02 11:43:28;;;;;;;;;;;;;;;19.30;41.29;101482.25;4960012;28;6988;-80
2023/05/02 11:45:56;;;;;;;;;;;;;;;19.45;40.94;101486.09;4970317;28;7005;-79
2023/05/02 11:48:26;;;;;;;;;;;;;;;19.44;40.32;101487.84;4952025;28;7001;-76
2023/05/02 11:50:56;;;;;;;;;;;;;;;19.35;40.11;101487.56;4974685;28;6900;-82
2023/05/02 11:53:28;;;;;;;;;;;;;;;19.26;40.12;101488.16;4987020;28;6997;-82
2023/05/02 11:56:03;;;;;;;;;;;;;;;19.13;40.31;101477.41;4960815;28;6865;-79
2023/05/02 11:58:32;;;;;;;;;;;;;;;19.06;40.53;101485.84;4957507;28;6808;-77
2023/05/02 12:01:19;;;;;;;;;;;;;;;19.07;40.65;101491.94;4962009;28;7246;-79
2023/05/02 12:03:47;;;;;;;;;;;;;;;19.14;40.57;101478.31;4990634;28;7093;-79
2023/05/02 12:06:17;;;;;;;;;;;;;;;19.20;40.24;101491.47;4987412;28;6937;-80
2023/05/02 12:08:44;;;;;;;;;;;;;;;19.27;40.49;101495.16;4955652;28;6946;-77
2023/05/02 12:11:14;;;;;;;;;;;;;;;19.37;39.72;101491.09;4990729;28;7164;-80
2023/05/02 12:13:46;;;;;;;;;;;;;;;19.44;39.89;101495.63;4957002;28;6992;-80
2023/05/02 12:16:12;;;;;;;;;;;;;;;19.51;39.80;101491.50;4970579;28;6804;-80
2023/05/02 12:18:38;;;;;;;;;;;;;;;19.66;39.86;101498.84;4973949;28;6823;-79
2023/05/02 12:21:05;;;;;;;;;;;;;;;19.85;39.04;101505.44;4960624;28;6856;-80
2023/05/02 12:23:31;;;;;;;;;;;;;;;20.04;38.41;101505.94;4972190;28;7845;-80
2023/05/02 12:25:58;;;;;;;;;;;;;;;20.43;38.71;101499.13;4991954;28;6792;-78
2023/05/02 12:28:23;;;;;;;;;;;;;;;20.98;37.87;101501.31;4970906;28;7025;-79
2023/05/02 12:30:50;;;;;;;;;;;;;;;21.18;37.14;101502.66;4971191;28;7141;-80
2023/05/02 12:33:17;;;;;;;;;;;;;;;21.15;36.68;101509.50;4988208;28;6803;-76
2023/05/02 12:35:47;;;;;;;;;;;;;;;20.94;36.73;101509.06;4943618;28;6813;-78
2023/05/02 12:38:19;;;;;;;;;;;;;;;20.67;36.79;101506.66;4968277;28;7070;-80
2023/05/02 12:40:51;;;;;;;;;;;;;;;20.43;36.67;101509.56;4958197;28;6876;-80
2023/05/02 12:43:18;;;;;;;;;;;;;;;20.23;36.80;101517.75;4963145;28;6804;-78
2023/05/02 12:45:44;;;;;;;;;;;;;;;20.13;37.11;101519.19;4985959;28;6796;-78
2023/05/02 12:48:25;;;;;;;;;;;;;;;20.30;37.41;101527.47;4973310;28;6798;-78
2023/05/02 12:50:53;;;;;;;;;;;;;;;20.42;36.75;101518.22;4981483;28;7149;-77
2023/05/02 12:53:41;;;;;;;;;;;;;;;20.43;36.63;101513.03;4986075;28;6981;-79
2023/05/02 12:56:07;;;;;;;;;;;;;;;20.42;36.17;101513.00;4955411;28;6796;-76
2023/05/02 12:58:44;;;;;;;;;;;;;;;20.43;36.25;101525.16;4955101;28;7213;-81